sensor_id;sensor_type;location;lat;lon;timestamp;P1;durP1;ratioP1;P2;durP2;ratioP2
32639;SDS011;19049;52.524;11.468;2023-05-07T00:00:21;6.93;;;5.97;;
32639;SDS011;19049;52.524;11.468;2023-05-07T00:02:47;6.10;;;5.50;;
32639;SDS011;19049;52.524;11.468;2023-05-07T00:05:13;6.07;;;5.33;;
32639;SDS011;19049;52.524;11.468;2023-05-07T00:07:39;6.20;;;5.60;;
32639;SDS011;19049;52.524;11.468;2023-05-07T00:10:06;5.93;;;5.07;;
32639;SDS011;19049;52.524;11.468;2023-05-07T00:12:32;6.17;;;5.20;;
32639;SDS011;19049;52.524;11.468;2023-05-07T00:15:02;6.60;;;5.90;;
32639;SDS011;19049;52.524;11.468;2023-05-07T00:17:28;7.33;;;5.87;;
32639;SDS011;19049;52.524;11.468;2023-05-07T00:19:55;6.77;;;5.80;;
32639;SDS011;19049;52.524;11.468;2023-05-07T00:22:21;6.37;;;5.60;;
32639;SDS011;19049;52.524;11.468;2023-05-07T00:24:46;6.00;;;5.00;;
32639;SDS011;19049;52.524;11.468;2023-05-07T00:27:12;6.23;;;5.20;;
32639;SDS011;19049;52.524;11.468;2023-05-07T00:29:38;5.63;;;4.80;;
32639;SDS011;19049;52.524;11.468;2023-05-07T00:32:04;6.57;;;4.47;;
32639;SDS011;19049;52.524;11.468;2023-05-07T00:34:30;5.20;;;4.70;;
32639;SDS011;19049;52.524;11.468;2023-05-07T00:36:56;4.57;;;3.70;;
32639;SDS011;19049;52.524;11.468;2023-05-07T00:39:22;5.00;;;4.37;;
32639;SDS011;19049;52.524;11.468;2023-05-07T00:41:48;4.97;;;4.50;;
32639;SDS011;19049;52.524;11.468;2023-05-07T00:44:14;4.57;;;4.10;;
32639;SDS011;19049;52.524;11.468;2023-05-07T00:46:40;5.00;;;4.10;;
32639;SDS011;19049;52.524;11.468;2023-05-07T00:49:06;6.03;;;4.77;;
32639;SDS011;19049;52.524;11.468;2023-05-07T00:51:32;5.20;;;4.40;;
32639;SDS011;19049;52.524;11.468;2023-05-07T00:53:59;4.40;;;4.00;;
32639;SDS011;19049;52.524;11.468;2023-05-07T00:56:26;6.63;;;4.50;;
32639;SDS011;19049;52.524;11.468;2023-05-07T00:58:53;5.47;;;4.53;;
32639;SDS011;19049;52.524;11.468;2023-05-07T01:01:19;5.60;;;4.07;;
32639;SDS011;19049;52.524;11.468;2023-05-07T01:03:44;4.73;;;4.10;;
32639;SDS011;19049;52.524;11.468;2023-05-07T01:06:10;5.60;;;4.60;;
32639;SDS011;19049;52.524;11.468;2023-05-07T01:08:38;5.57;;;4.13;;
32639;SDS011;19049;52.524;11.468;2023-05-07T01:11:05;6.07;;;5.10;;
32639;SDS011;19049;52.524;11.468;2023-05-07T01:13:31;6.00;;;4.87;;
32639;SDS011;19049;52.524;11.468;2023-05-07T01:15:59;6.50;;;5.40;;
32639;SDS011;19049;52.524;11.468;2023-05-07T01:18:25;5.63;;;4.90;;
32639;SDS011;19049;52.524;11.468;2023-05-07T01:20:51;5.60;;;5.10;;
32639;SDS011;19049;52.524;11.468;2023-05-07T01:23:18;5.43;;;4.80;;
32639;SDS011;19049;52.524;11.468;2023-05-07T01:25:50;5.37;;;4.30;;
32639;SDS011;19049;52.524;11.468;2023-05-07T01:28:16;5.63;;;5.03;;
32639;SDS011;19049;52.524;11.468;2023-05-07T01:30:43;7.20;;;5.07;;
32639;SDS011;19049;52.524;11.468;2023-05-07T01:33:13;6.40;;;4.90;;
32639;SDS011;19049;52.524;11.468;2023-05-07T01:35:45;4.87;;;4.30;;
32639;SDS011;19049;52.524;11.468;2023-05-07T01:38:13;5.30;;;4.80;;
32639;SDS011;19049;52.524;11.468;2023-05-07T01:40:39;8.43;;;6.40;;
32639;SDS011;19049;52.524;11.468;2023-05-07T01:43:06;7.33;;;6.10;;
32639;SDS011;19049;52.524;11.468;2023-05-07T01:45:32;7.83;;;6.17;;
32639;SDS011;19049;52.524;11.468;2023-05-07T01:47:59;7.27;;;6.30;;
32639;SDS011;19049;52.524;11.468;2023-05-07T01:50:25;9.93;;;6.20;;
32639;SDS011;19049;52.524;11.468;2023-05-07T01:52:51;7.60;;;6.30;;
32639;SDS011;19049;52.524;11.468;2023-05-07T01:55:17;8.17;;;6.03;;
32639;SDS011;19049;52.524;11.468;2023-05-07T01:57:44;7.07;;;5.73;;
32639;SDS011;19049;52.524;11.468;2023-05-07T02:00:10;6.80;;;5.90;;
32639;SDS011;19049;52.524;11.468;2023-05-07T02:02:36;7.90;;;7.00;;
32639;SDS011;19049;52.524;11.468;2023-05-07T02:05:03;7.70;;;5.67;;
32639;SDS011;19049;52.524;11.468;2023-05-07T02:07:29;9.13;;;7.00;;
32639;SDS011;19049;52.524;11.468;2023-05-07T02:09:55;8.00;;;7.20;;
32639;SDS011;19049;52.524;11.468;2023-05-07T02:12:21;9.33;;;7.07;;
32639;SDS011;19049;52.524;11.468;2023-05-07T02:14:48;8.73;;;6.70;;
32639;SDS011;19049;52.524;11.468;2023-05-07T02:17:14;7.40;;;6.00;;
32639;SDS011;19049;52.524;11.468;2023-05-07T02:19:40;6.27;;;5.00;;
32639;SDS011;19049;52.524;11.468;2023-05-07T02:22:06;6.60;;;5.23;;
32639;SDS011;19049;52.524;11.468;2023-05-07T02:24:32;9.27;;;6.23;;
32639;SDS011;19049;52.524;11.468;2023-05-07T02:26:58;7.97;;;6.00;;
32639;SDS011;19049;52.524;11.468;2023-05-07T02:29:24;6.50;;;5.40;;
32639;SDS011;19049;52.524;11.468;2023-05-07T02:31:50;5.87;;;4.87;;
32639;SDS011;19049;52.524;11.468;2023-05-07T02:34:18;6.77;;;5.10;;
32639;SDS011;19049;52.524;11.468;2023-05-07T02:36:44;4.93;;;4.40;;
32639;SDS011;19049;52.524;11.468;2023-05-07T02:39:10;6.13;;;4.83;;
32639;SDS011;19049;52.524;11.468;2023-05-07T02:41:36;6.27;;;5.07;;
32639;SDS011;19049;52.524;11.468;2023-05-07T02:44:02;6.23;;;4.80;;
32639;SDS011;19049;52.524;11.468;2023-05-07T02:46:28;6.63;;;5.60;;
32639;SDS011;19049;52.524;11.468;2023-05-07T02:48:54;7.93;;;5.63;;
32639;SDS011;19049;52.524;11.468;2023-05-07T02:51:21;6.93;;;5.13;;
32639;SDS011;19049;52.524;11.468;2023-05-07T02:53:47;5.33;;;4.13;;
32639;SDS011;19049;52.524;11.468;2023-05-07T02:56:13;7.07;;;4.70;;
32639;SDS011;19049;52.524;11.468;2023-05-07T02:58:39;6.07;;;5.07;;
32639;SDS011;19049;52.524;11.468;2023-05-07T03:01:07;7.70;;;5.30;;
32639;SDS011;19049;52.524;11.468;2023-05-07T03:03:33;6.80;;;5.60;;
32639;SDS011;19049;52.524;11.468;2023-05-07T03:05:59;8.13;;;5.80;;
32639;SDS011;19049;52.524;11.468;2023-05-07T03:08:25;5.77;;;4.83;;
32639;SDS011;19049;52.524;11.468;2023-05-07T03:10:51;6.70;;;5.53;;
32639;SDS011;19049;52.524;11.468;2023-05-07T03:13:17;6.93;;;5.20;;
32639;SDS011;19049;52.524;11.468;2023-05-07T03:15:43;6.90;;;5.37;;
32639;SDS011;19049;52.524;11.468;2023-05-07T03:18:09;6.13;;;4.47;;
32639;SDS011;19049;52.524;11.468;2023-05-07T03:20:35;9.37;;;5.70;;
32639;SDS011;19049;52.524;11.468;2023-05-07T03:23:01;6.77;;;5.20;;
32639;SDS011;19049;52.524;11.468;2023-05-07T03:25:27;6.37;;;5.17;;
32639;SDS011;19049;52.524;11.468;2023-05-07T03:27:55;6.27;;;4.70;;
32639;SDS011;19049;52.524;11.468;2023-05-07T03:30:21;5.07;;;3.90;;
32639;SDS011;19049;52.524;11.468;2023-05-07T03:32:47;6.33;;;4.50;;
32639;SDS011;19049;52.524;11.468;2023-05-07T03:35:13;6.37;;;5.10;;
32639;SDS011;19049;52.524;11.468;2023-05-07T03:37:40;5.77;;;4.37;;
32639;SDS011;19049;52.524;11.468;2023-05-07T03:40:06;6.23;;;4.40;;
32639;SDS011;19049;52.524;11.468;2023-05-07T03:42:33;6.67;;;4.80;;
32639;SDS011;19049;52.524;11.468;2023-05-07T03:44:59;6.40;;;5.30;;
32639;SDS011;19049;52.524;11.468;2023-05-07T03:47:24;6.93;;;5.37;;
32639;SDS011;19049;52.524;11.468;2023-05-07T03:49:50;7.83;;;5.63;;
32639;SDS011;19049;52.524;11.468;2023-05-07T03:52:18;7.50;;;5.33;;
32639;SDS011;19049;52.524;11.468;2023-05-07T03:54:48;7.17;;;5.33;;
32639;SDS011;19049;52.524;11.468;2023-05-07T03:57:15;6.37;;;5.07;;
32639;SDS011;19049;52.524;11.468;2023-05-07T03:59:40;7.10;;;4.80;;
32639;SDS011;19049;52.524;11.468;2023-05-07T04:02:06;7.03;;;5.37;;
32639;SDS011;19049;52.524;11.468;2023-05-07T04:04:32;8.40;;;5.60;;
32639;SDS011;19049;52.524;11.468;2023-05-07T04:06:58;7.27;;;5.53;;
32639;SDS011;19049;52.524;11.468;2023-05-07T04:09:25;7.07;;;5.10;;
32639;SDS011;19049;52.524;11.468;2023-05-07T04:11:51;6.93;;;5.73;;
32639;SDS011;19049;52.524;11.468;2023-05-07T04:14:17;9.40;;;6.20;;
32639;SDS011;19049;52.524;11.468;2023-05-07T04:16:43;8.00;;;6.17;;
32639;SDS011;19049;52.524;11.468;2023-05-07T04:19:09;9.03;;;7.17;;
32639;SDS011;19049;52.524;11.468;2023-05-07T04:21:35;9.33;;;7.13;;
32639;SDS011;19049;52.524;11.468;2023-05-07T04:24:02;9.37;;;6.43;;
32639;SDS011;19049;52.524;11.468;2023-05-07T04:26:28;7.57;;;5.73;;
32639;SDS011;19049;52.524;11.468;2023-05-07T04:28:54;7.00;;;5.07;;
32639;SDS011;19049;52.524;11.468;2023-05-07T04:31:20;5.97;;;4.83;;
32639;SDS011;19049;52.524;11.468;2023-05-07T04:33:46;8.50;;;6.30;;
32639;SDS011;19049;52.524;11.468;2023-05-07T04:36:12;7.07;;;5.53;;
32639;SDS011;19049;52.524;11.468;2023-05-07T04:38:38;8.63;;;6.50;;
32639;SDS011;19049;52.524;11.468;2023-05-07T04:41:05;8.97;;;6.60;;
32639;SDS011;19049;52.524;11.468;2023-05-07T04:43:31;8.93;;;7.10;;
32639;SDS011;19049;52.524;11.468;2023-05-07T04:45:57;8.93;;;6.77;;
32639;SDS011;19049;52.524;11.468;2023-05-07T04:48:23;7.73;;;5.43;;
32639;SDS011;19049;52.524;11.468;2023-05-07T04:50:49;6.97;;;5.50;;
32639;SDS011;19049;52.524;11.468;2023-05-07T04:53:16;5.60;;;4.50;;
32639;SDS011;19049;52.524;11.468;2023-05-07T04:55:42;6.23;;;5.10;;
32639;SDS011;19049;52.524;11.468;2023-05-07T04:58:09;8.00;;;5.80;;
32639;SDS011;19049;52.524;11.468;2023-05-07T05:00:35;6.37;;;5.40;;
32639;SDS011;19049;52.524;11.468;2023-05-07T05:03:01;7.57;;;6.33;;
32639;SDS011;19049;52.524;11.468;2023-05-07T05:05:27;6.93;;;5.50;;
32639;SDS011;19049;52.524;11.468;2023-05-07T05:07:53;7.73;;;5.67;;
32639;SDS011;19049;52.524;11.468;2023-05-07T05:10:20;7.23;;;5.90;;
32639;SDS011;19049;52.524;11.468;2023-05-07T05:12:46;6.53;;;5.53;;
32639;SDS011;19049;52.524;11.468;2023-05-07T05:15:12;5.97;;;4.97;;
32639;SDS011;19049;52.524;11.468;2023-05-07T05:17:38;6.93;;;4.60;;
32639;SDS011;19049;52.524;11.468;2023-05-07T05:20:05;4.43;;;4.00;;
32639;SDS011;19049;52.524;11.468;2023-05-07T05:22:31;5.70;;;4.83;;
32639;SDS011;19049;52.524;11.468;2023-05-07T05:24:57;6.13;;;4.97;;
32639;SDS011;19049;52.524;11.468;2023-05-07T05:27:23;5.70;;;5.07;;
32639;SDS011;19049;52.524;11.468;2023-05-07T05:29:49;6.93;;;4.87;;
32639;SDS011;19049;52.524;11.468;2023-05-07T05:32:15;6.43;;;5.70;;
32639;SDS011;19049;52.524;11.468;2023-05-07T05:34:41;9.73;;;5.80;;
32639;SDS011;19049;52.524;11.468;2023-05-07T05:37:07;6.27;;;4.80;;
32639;SDS011;19049;52.524;11.468;2023-05-07T05:39:33;6.13;;;4.63;;
32639;SDS011;19049;52.524;11.468;2023-05-07T05:41:59;5.37;;;4.00;;
32639;SDS011;19049;52.524;11.468;2023-05-07T05:44:25;4.83;;;4.27;;
32639;SDS011;19049;52.524;11.468;2023-05-07T05:46:51;5.90;;;4.93;;
32639;SDS011;19049;52.524;11.468;2023-05-07T05:49:19;6.57;;;4.93;;
32639;SDS011;19049;52.524;11.468;2023-05-07T05:51:45;6.30;;;4.73;;
32639;SDS011;19049;52.524;11.468;2023-05-07T05:54:11;6.77;;;4.93;;
32639;SDS011;19049;52.524;11.468;2023-05-07T05:56:37;6.57;;;4.57;;
32639;SDS011;19049;52.524;11.468;2023-05-07T05:59:03;6.27;;;5.17;;
32639;SDS011;19049;52.524;11.468;2023-05-07T06:01:29;5.10;;;4.23;;
32639;SDS011;19049;52.524;11.468;2023-05-07T06:03:55;5.90;;;4.00;;
32639;SDS011;19049;52.524;11.468;2023-05-07T06:06:21;5.73;;;4.37;;
32639;SDS011;19049;52.524;11.468;2023-05-07T06:08:47;5.10;;;4.27;;
32639;SDS011;19049;52.524;11.468;2023-05-07T06:11:13;4.33;;;3.87;;
32639;SDS011;19049;52.524;11.468;2023-05-07T06:13:39;5.37;;;4.43;;
32639;SDS011;19049;52.524;11.468;2023-05-07T06:16:05;4.63;;;4.03;;
32639;SDS011;19049;52.524;11.468;2023-05-07T06:18:31;6.60;;;4.43;;
32639;SDS011;19049;52.524;11.468;2023-05-07T06:20:57;3.40;;;3.10;;
32639;SDS011;19049;52.524;11.468;2023-05-07T06:23:23;4.60;;;3.80;;
32639;SDS011;19049;52.524;11.468;2023-05-07T06:25:49;4.00;;;3.03;;
32639;SDS011;19049;52.524;11.468;2023-05-07T06:28:16;5.40;;;3.43;;
32639;SDS011;19049;52.524;11.468;2023-05-07T06:30:42;4.30;;;3.80;;
32639;SDS011;19049;52.524;11.468;2023-05-07T06:33:08;5.73;;;3.90;;
32639;SDS011;19049;52.524;11.468;2023-05-07T06:35:34;6.17;;;3.77;;
32639;SDS011;19049;52.524;11.468;2023-05-07T06:38:00;4.40;;;3.90;;
32639;SDS011;19049;52.524;11.468;2023-05-07T06:40:26;4.83;;;3.77;;
32639;SDS011;19049;52.524;11.468;2023-05-07T06:42:52;5.73;;;4.53;;
32639;SDS011;19049;52.524;11.468;2023-05-07T06:45:19;5.73;;;4.57;;
32639;SDS011;19049;52.524;11.468;2023-05-07T06:47:45;8.40;;;5.57;;
32639;SDS011;19049;52.524;11.468;2023-05-07T06:50:11;6.60;;;4.70;;
32639;SDS011;19049;52.524;11.468;2023-05-07T06:52:37;6.13;;;4.70;;
32639;SDS011;19049;52.524;11.468;2023-05-07T06:55:03;6.93;;;5.40;;
32639;SDS011;19049;52.524;11.468;2023-05-07T06:57:29;4.53;;;3.87;;
32639;SDS011;19049;52.524;11.468;2023-05-07T06:59:55;4.57;;;3.57;;
32639;SDS011;19049;52.524;11.468;2023-05-07T07:02:21;5.10;;;4.27;;
32639;SDS011;19049;52.524;11.468;2023-05-07T07:04:47;5.63;;;4.50;;
32639;SDS011;19049;52.524;11.468;2023-05-07T07:07:13;5.67;;;4.97;;
32639;SDS011;19049;52.524;11.468;2023-05-07T07:09:39;5.40;;;4.33;;
32639;SDS011;19049;52.524;11.468;2023-05-07T07:12:05;6.67;;;4.87;;
32639;SDS011;19049;52.524;11.468;2023-05-07T07:14:31;7.77;;;5.37;;
32639;SDS011;19049;52.524;11.468;2023-05-07T07:16:57;7.13;;;5.37;;
32639;SDS011;19049;52.524;11.468;2023-05-07T07:19:23;4.80;;;4.10;;
32639;SDS011;19049;52.524;11.468;2023-05-07T07:21:49;5.93;;;4.70;;
32639;SDS011;19049;52.524;11.468;2023-05-07T07:24:15;7.37;;;5.20;;
32639;SDS011;19049;52.524;11.468;2023-05-07T07:26:44;8.10;;;5.70;;
32639;SDS011;19049;52.524;11.468;2023-05-07T07:29:10;8.07;;;5.20;;
32639;SDS011;19049;52.524;11.468;2023-05-07T07:31:36;9.90;;;6.10;;
32639;SDS011;19049;52.524;11.468;2023-05-07T07:34:02;7.37;;;5.50;;
32639;SDS011;19049;52.524;11.468;2023-05-07T07:36:27;7.43;;;5.20;;
32639;SDS011;19049;52.524;11.468;2023-05-07T07:38:54;6.17;;;4.93;;
32639;SDS011;19049;52.524;11.468;2023-05-07T07:41:20;6.07;;;4.57;;
32639;SDS011;19049;52.524;11.468;2023-05-07T07:43:46;7.40;;;5.10;;
32639;SDS011;19049;52.524;11.468;2023-05-07T07:46:12;6.93;;;5.00;;
32639;SDS011;19049;52.524;11.468;2023-05-07T07:48:38;5.73;;;4.87;;
32639;SDS011;19049;52.524;11.468;2023-05-07T07:51:04;6.80;;;5.40;;
32639;SDS011;19049;52.524;11.468;2023-05-07T07:53:30;6.77;;;4.73;;
32639;SDS011;19049;52.524;11.468;2023-05-07T07:55:56;7.33;;;5.23;;
32639;SDS011;19049;52.524;11.468;2023-05-07T07:58:22;5.13;;;4.57;;
32639;SDS011;19049;52.524;11.468;2023-05-07T08:00:49;4.23;;;3.83;;
32639;SDS011;19049;52.524;11.468;2023-05-07T08:03:16;6.07;;;4.80;;
32639;SDS011;19049;52.524;11.468;2023-05-07T08:05:41;7.40;;;5.27;;
32639;SDS011;19049;52.524;11.468;2023-05-07T08:08:08;6.43;;;4.70;;
32639;SDS011;19049;52.524;11.468;2023-05-07T08:10:34;6.63;;;5.33;;
32639;SDS011;19049;52.524;11.468;2023-05-07T08:13:03;8.07;;;5.43;;
32639;SDS011;19049;52.524;11.468;2023-05-07T08:15:29;7.43;;;4.90;;
32639;SDS011;19049;52.524;11.468;2023-05-07T08:17:55;6.70;;;4.90;;
32639;SDS011;19049;52.524;11.468;2023-05-07T08:20:25;6.30;;;4.63;;
32639;SDS011;19049;52.524;11.468;2023-05-07T08:22:51;5.43;;;4.27;;
32639;SDS011;19049;52.524;11.468;2023-05-07T08:25:17;6.83;;;4.93;;
32639;SDS011;19049;52.524;11.468;2023-05-07T08:27:43;8.27;;;5.47;;
32639;SDS011;19049;52.524;11.468;2023-05-07T08:30:10;6.53;;;5.20;;
32639;SDS011;19049;52.524;11.468;2023-05-07T08:32:36;6.17;;;5.33;;
32639;SDS011;19049;52.524;11.468;2023-05-07T08:35:01;6.40;;;4.90;;
32639;SDS011;19049;52.524;11.468;2023-05-07T08:37:27;8.43;;;6.23;;
32639;SDS011;19049;52.524;11.468;2023-05-07T08:39:53;7.50;;;6.47;;
32639;SDS011;19049;52.524;11.468;2023-05-07T08:42:19;8.73;;;5.87;;
32639;SDS011;19049;52.524;11.468;2023-05-07T08:44:48;9.97;;;5.90;;
32639;SDS011;19049;52.524;11.468;2023-05-07T08:47:19;5.70;;;5.07;;
32639;SDS011;19049;52.524;11.468;2023-05-07T08:49:51;7.10;;;5.97;;
32639;SDS011;19049;52.524;11.468;2023-05-07T08:52:17;6.20;;;4.50;;
32639;SDS011;19049;52.524;11.468;2023-05-07T08:54:44;6.77;;;5.60;;
32639;SDS011;19049;52.524;11.468;2023-05-07T08:57:10;5.53;;;4.80;;
32639;SDS011;19049;52.524;11.468;2023-05-07T08:59:36;6.43;;;4.97;;
32639;SDS011;19049;52.524;11.468;2023-05-07T09:02:02;5.50;;;4.47;;
32639;SDS011;19049;52.524;11.468;2023-05-07T09:04:28;5.17;;;4.50;;
32639;SDS011;19049;52.524;11.468;2023-05-07T09:06:56;5.87;;;4.40;;
32639;SDS011;19049;52.524;11.468;2023-05-07T09:09:28;6.83;;;4.40;;
32639;SDS011;19049;52.524;11.468;2023-05-07T09:11:57;5.37;;;4.67;;
32639;SDS011;19049;52.524;11.468;2023-05-07T09:14:27;8.47;;;6.13;;
32639;SDS011;19049;52.524;11.468;2023-05-07T09:16:53;5.87;;;5.17;;
32639;SDS011;19049;52.524;11.468;2023-05-07T09:19:25;5.87;;;4.83;;
32639;SDS011;19049;52.524;11.468;2023-05-07T09:21:58;6.20;;;4.60;;
32639;SDS011;19049;52.524;11.468;2023-05-07T09:24:27;5.40;;;4.23;;
32639;SDS011;19049;52.524;11.468;2023-05-07T09:26:57;6.83;;;5.50;;
32639;SDS011;19049;52.524;11.468;2023-05-07T09:29:23;6.47;;;5.30;;
32639;SDS011;19049;52.524;11.468;2023-05-07T09:31:48;6.93;;;4.70;;
32639;SDS011;19049;52.524;11.468;2023-05-07T09:34:14;4.47;;;3.77;;
32639;SDS011;19049;52.524;11.468;2023-05-07T09:36:40;6.07;;;4.23;;
32639;SDS011;19049;52.524;11.468;2023-05-07T09:39:07;9.20;;;4.50;;
32639;SDS011;19049;52.524;11.468;2023-05-07T09:41:33;5.00;;;4.00;;
32639;SDS011;19049;52.524;11.468;2023-05-07T09:44:09;4.60;;;4.13;;
32639;SDS011;19049;52.524;11.468;2023-05-07T09:46:36;4.53;;;4.00;;
32639;SDS011;19049;52.524;11.468;2023-05-07T09:49:03;5.97;;;4.17;;
32639;SDS011;19049;52.524;11.468;2023-05-07T09:51:36;5.10;;;4.13;;
32639;SDS011;19049;52.524;11.468;2023-05-07T09:54:08;5.03;;;4.30;;
32639;SDS011;19049;52.524;11.468;2023-05-07T09:56:35;5.00;;;3.97;;
32639;SDS011;19049;52.524;11.468;2023-05-07T09:59:03;4.53;;;3.77;;
32639;SDS011;19049;52.524;11.468;2023-05-07T10:01:31;4.47;;;3.90;;
32639;SDS011;19049;52.524;11.468;2023-05-07T10:03:57;4.70;;;4.20;;
32639;SDS011;19049;52.524;11.468;2023-05-07T10:06:23;4.47;;;4.03;;
32639;SDS011;19049;52.524;11.468;2023-05-07T10:08:50;6.63;;;4.53;;
32639;SDS011;19049;52.524;11.468;2023-05-07T10:11:17;4.97;;;4.20;;
32639;SDS011;19049;52.524;11.468;2023-05-07T10:13:43;7.43;;;5.20;;
32639;SDS011;19049;52.524;11.468;2023-05-07T10:16:09;4.77;;;3.90;;
32639;SDS011;19049;52.524;11.468;2023-05-07T10:18:35;5.30;;;4.33;;
32639;SDS011;19049;52.524;11.468;2023-05-07T10:23:29;4.27;;;3.60;;
32639;SDS011;19049;52.524;11.468;2023-05-07T10:25:56;4.07;;;3.50;;
32639;SDS011;19049;52.524;11.468;2023-05-07T10:28:23;3.80;;;3.23;;
32639;SDS011;19049;52.524;11.468;2023-05-07T10:30:56;4.47;;;3.20;;
32639;SDS011;19049;52.524;11.468;2023-05-07T10:33:26;3.93;;;3.37;;
32639;SDS011;19049;52.524;11.468;2023-05-07T10:35:55;5.93;;;3.90;;
32639;SDS011;19049;52.524;11.468;2023-05-07T10:38:24;4.83;;;3.70;;
32639;SDS011;19049;52.524;11.468;2023-05-07T10:40:50;4.60;;;3.97;;
32639;SDS011;19049;52.524;11.468;2023-05-07T10:43:16;4.73;;;3.40;;
32639;SDS011;19049;52.524;11.468;2023-05-07T10:45:42;5.43;;;3.70;;
32639;SDS011;19049;52.524;11.468;2023-05-07T10:50:37;4.87;;;3.50;;
32639;SDS011;19049;52.524;11.468;2023-05-07T10:55:42;5.07;;;3.47;;
32639;SDS011;19049;52.524;11.468;2023-05-07T10:58:30;3.50;;;3.20;;
32639;SDS011;19049;52.524;11.468;2023-05-07T11:00:58;4.13;;;3.47;;
32639;SDS011;19049;52.524;11.468;2023-05-07T11:03:26;3.83;;;2.83;;
32639;SDS011;19049;52.524;11.468;2023-05-07T11:14:13;4.00;;;3.60;;
32639;SDS011;19049;52.524;11.468;2023-05-07T11:16:40;5.60;;;3.20;;
32639;SDS011;19049;52.524;11.468;2023-05-07T11:19:06;4.10;;;3.70;;
32639;SDS011;19049;52.524;11.468;2023-05-07T11:24:04;2.80;;;2.60;;
32639;SDS011;19049;52.524;11.468;2023-05-07T11:26:31;5.00;;;2.90;;
32639;SDS011;19049;52.524;11.468;2023-05-07T11:29:16;4.27;;;3.50;;
32639;SDS011;19049;52.524;11.468;2023-05-07T11:31:43;3.37;;;3.07;;
32639;SDS011;19049;52.524;11.468;2023-05-07T11:34:09;3.50;;;3.20;;
32639;SDS011;19049;52.524;11.468;2023-05-07T11:36:39;2.93;;;2.73;;
32639;SDS011;19049;52.524;11.468;2023-05-07T11:39:22;4.37;;;2.87;;
32639;SDS011;19049;52.524;11.468;2023-05-07T11:41:52;2.53;;;2.33;;
32639;SDS011;19049;52.524;11.468;2023-05-07T11:44:18;2.53;;;2.30;;
32639;SDS011;19049;52.524;11.468;2023-05-07T11:46:43;2.20;;;2.00;;
32639;SDS011;19049;52.524;11.468;2023-05-07T11:49:10;2.87;;;2.60;;
32639;SDS011;19049;52.524;11.468;2023-05-07T11:51:36;4.03;;;2.60;;
32639;SDS011;19049;52.524;11.468;2023-05-07T11:54:05;3.27;;;2.93;;
32639;SDS011;19049;52.524;11.468;2023-05-07T11:56:34;2.43;;;2.20;;
32639;SDS011;19049;52.524;11.468;2023-05-07T11:59:00;2.53;;;2.20;;
32639;SDS011;19049;52.524;11.468;2023-05-07T12:01:26;3.50;;;2.67;;
32639;SDS011;19049;52.524;11.468;2023-05-07T12:03:52;3.17;;;2.37;;
32639;SDS011;19049;52.524;11.468;2023-05-07T12:06:17;3.57;;;2.80;;
32639;SDS011;19049;52.524;11.468;2023-05-07T12:08:44;2.90;;;2.13;;
32639;SDS011;19049;52.524;11.468;2023-05-07T12:11:21;2.77;;;2.47;;
32639;SDS011;19049;52.524;11.468;2023-05-07T12:13:48;2.17;;;1.97;;
32639;SDS011;19049;52.524;11.468;2023-05-07T12:16:14;2.80;;;2.60;;
32639;SDS011;19049;52.524;11.468;2023-05-07T12:18:40;3.07;;;2.60;;
32639;SDS011;19049;52.524;11.468;2023-05-07T12:21:06;4.07;;;2.90;;
32639;SDS011;19049;52.524;11.468;2023-05-07T12:23:35;4.13;;;2.87;;
32639;SDS011;19049;52.524;11.468;2023-05-07T12:26:02;2.10;;;1.87;;
32639;SDS011;19049;52.524;11.468;2023-05-07T12:28:28;1.90;;;1.80;;
32639;SDS011;19049;52.524;11.468;2023-05-07T12:30:55;2.30;;;2.10;;
32639;SDS011;19049;52.524;11.468;2023-05-07T12:33:25;2.60;;;2.20;;
32639;SDS011;19049;52.524;11.468;2023-05-07T12:35:53;2.50;;;2.30;;
32639;SDS011;19049;52.524;11.468;2023-05-07T12:38:19;4.27;;;2.10;;
32639;SDS011;19049;52.524;11.468;2023-05-07T12:40:49;2.07;;;1.83;;
32639;SDS011;19049;52.524;11.468;2023-05-07T12:43:26;2.20;;;1.83;;
32639;SDS011;19049;52.524;11.468;2023-05-07T12:45:54;2.70;;;2.00;;
32639;SDS011;19049;52.524;11.468;2023-05-07T12:48:22;2.73;;;2.00;;
32639;SDS011;19049;52.524;11.468;2023-05-07T12:50:49;2.30;;;2.10;;
32639;SDS011;19049;52.524;11.468;2023-05-07T12:53:15;2.53;;;2.33;;
32639;SDS011;19049;52.524;11.468;2023-05-07T12:55:42;2.17;;;1.97;;
32639;SDS011;19049;52.524;11.468;2023-05-07T12:58:24;3.40;;;1.87;;
32639;SDS011;19049;52.524;11.468;2023-05-07T13:00:54;1.67;;;1.47;;
32639;SDS011;19049;52.524;11.468;2023-05-07T13:05:49;2.43;;;2.23;;
32639;SDS011;19049;52.524;11.468;2023-05-07T13:08:34;2.07;;;1.87;;
32639;SDS011;19049;52.524;11.468;2023-05-07T13:11:02;3.13;;;2.10;;
32639;SDS011;19049;52.524;11.468;2023-05-07T13:13:32;2.80;;;2.50;;
32639;SDS011;19049;52.524;11.468;2023-05-07T13:15:59;2.93;;;2.40;;
32639;SDS011;19049;52.524;11.468;2023-05-07T13:18:25;2.03;;;1.83;;
32639;SDS011;19049;52.524;11.468;2023-05-07T13:20:51;1.90;;;1.70;;
32639;SDS011;19049;52.524;11.468;2023-05-07T13:23:18;1.80;;;1.70;;
32639;SDS011;19049;52.524;11.468;2023-05-07T13:25:43;2.00;;;1.90;;
32639;SDS011;19049;52.524;11.468;2023-05-07T13:28:09;2.70;;;2.00;;
32639;SDS011;19049;52.524;11.468;2023-05-07T13:30:35;2.70;;;1.90;;
32639;SDS011;19049;52.524;11.468;2023-05-07T13:33:01;3.27;;;2.10;;
32639;SDS011;19049;52.524;11.468;2023-05-07T13:35:27;2.73;;;2.00;;
32639;SDS011;19049;52.524;11.468;2023-05-07T13:37:53;1.97;;;1.73;;
32639;SDS011;19049;52.524;11.468;2023-05-07T13:40:21;2.43;;;1.90;;
32639;SDS011;19049;52.524;11.468;2023-05-07T13:42:47;1.57;;;1.47;;
32639;SDS011;19049;52.524;11.468;2023-05-07T13:45:13;1.70;;;1.60;;
32639;SDS011;19049;52.524;11.468;2023-05-07T13:47:42;3.40;;;1.70;;
32639;SDS011;19049;52.524;11.468;2023-05-07T13:50:08;2.13;;;1.67;;
32639;SDS011;19049;52.524;11.468;2023-05-07T13:52:36;1.97;;;1.70;;
32639;SDS011;19049;52.524;11.468;2023-05-07T13:55:02;2.10;;;1.90;;
32639;SDS011;19049;52.524;11.468;2023-05-07T13:57:28;1.60;;;1.50;;
32639;SDS011;19049;52.524;11.468;2023-05-07T13:59:55;2.17;;;1.97;;
32639;SDS011;19049;52.524;11.468;2023-05-07T14:02:21;2.60;;;1.70;;
32639;SDS011;19049;52.524;11.468;2023-05-07T14:04:46;2.20;;;2.00;;
32639;SDS011;19049;52.524;11.468;2023-05-07T14:07:13;2.10;;;1.90;;
32639;SDS011;19049;52.524;11.468;2023-05-07T14:09:39;1.83;;;1.70;;
32639;SDS011;19049;52.524;11.468;2023-05-07T14:12:05;1.87;;;1.77;;
32639;SDS011;19049;52.524;11.468;2023-05-07T14:14:31;1.60;;;1.50;;
32639;SDS011;19049;52.524;11.468;2023-05-07T14:16:57;1.70;;;1.60;;
32639;SDS011;19049;52.524;11.468;2023-05-07T14:19:23;2.00;;;1.80;;
32639;SDS011;19049;52.524;11.468;2023-05-07T14:21:49;1.63;;;1.50;;
32639;SDS011;19049;52.524;11.468;2023-05-07T14:24:15;2.27;;;1.50;;
32639;SDS011;19049;52.524;11.468;2023-05-07T14:26:41;2.27;;;1.50;;
32639;SDS011;19049;52.524;11.468;2023-05-07T14:29:07;1.80;;;1.70;;
32639;SDS011;19049;52.524;11.468;2023-05-07T14:31:32;1.63;;;1.53;;
32639;SDS011;19049;52.524;11.468;2023-05-07T14:33:58;1.70;;;1.60;;
32639;SDS011;19049;52.524;11.468;2023-05-07T14:36:24;1.50;;;1.40;;
32639;SDS011;19049;52.524;11.468;2023-05-07T14:38:51;2.47;;;1.70;;
32639;SDS011;19049;52.524;11.468;2023-05-07T14:41:18;2.70;;;1.70;;
32639;SDS011;19049;52.524;11.468;2023-05-07T14:43:45;2.10;;;1.80;;
32639;SDS011;19049;52.524;11.468;2023-05-07T14:46:15;1.80;;;1.47;;
32639;SDS011;19049;52.524;11.468;2023-05-07T14:48:42;2.97;;;2.00;;
32639;SDS011;19049;52.524;11.468;2023-05-07T14:51:10;1.97;;;1.70;;